sensor_id;sensor_type;location;lat;lon;timestamp;pressure;altitude;pressure_sealevel;temperature;humidity
45078;BME280;60508;42.622;25.416;2024-03-23T00:54:33;96892.63;;;7.16;49.50
45078;BME280;60508;42.622;25.416;2024-03-23T00:57:19;96893.00;;;7.19;49.01
45078;BME280;60508;42.622;25.416;2024-03-23T00:59:46;96884.81;;;6.89;49.75
45078;BME280;60508;42.622;25.416;2024-03-23T01:02:32;96876.75;;;6.70;50.54
45078;BME280;60508;42.622;25.416;2024-03-23T01:05:03;96878.53;;;6.76;50.21
45078;BME280;60508;42.622;25.416;2024-03-23T01:07:30;96883.69;;;6.71;50.60
45078;BME280;60508;42.622;25.416;2024-03-23T01:10:16;96884.41;;;6.21;51.52
45078;BME280;60508;42.622;25.416;2024-03-23T01:12:43;96889.69;;;5.83;52.77
45078;BME280;60508;42.622;25.416;2024-03-23T01:15:09;96885.38;;;5.82;53.27
45078;BME280;60508;42.622;25.416;2024-03-23T01:17:36;96890.53;;;5.63;53.92
45078;BME280;60508;42.622;25.416;2024-03-23T01:20:22;96880.13;;;5.48;54.32
45078;BME280;60508;42.622;25.416;2024-03-23T01:22:49;96885.63;;;5.67;54.01
45078;BME280;60508;42.622;25.416;2024-03-23T01:25:15;96886.28;;;5.56;54.61
45078;BME280;60508;42.622;25.416;2024-03-23T01:27:41;96887.47;;;5.60;54.27
45078;BME280;60508;42.622;25.416;2024-03-23T01:30:08;96882.44;;;5.25;55.01
45078;BME280;60508;42.622;25.416;2024-03-23T01:32:54;96880.13;;;5.42;55.25
45078;BME280;60508;42.622;25.416;2024-03-23T01:35:21;96874.56;;;5.57;55.04
45078;BME280;60508;42.622;25.416;2024-03-23T01:37:47;96877.00;;;5.72;54.49
45078;BME280;60508;42.622;25.416;2024-03-23T01:40:33;96874.91;;;5.80;53.72
45078;BME280;60508;42.622;25.416;2024-03-23T01:43:04;96871.34;;;5.35;55.39
45078;BME280;60508;42.622;25.416;2024-03-23T01:45:51;96881.63;;;4.98;56.80
45078;BME280;60508;42.622;25.416;2024-03-23T01:48:20;96869.13;;;5.25;56.63
45078;BME280;60508;42.622;25.416;2024-03-23T01:50:47;96875.84;;;5.27;56.06
45078;BME280;60508;42.622;25.416;2024-03-23T01:53:14;96863.97;;;5.30;56.16
45078;BME280;60508;42.622;25.416;2024-03-23T01:55:43;96874.44;;;5.05;56.82
45078;BME280;60508;42.622;25.416;2024-03-23T01:58:10;96866.69;;;4.77;58.05
45078;BME280;60508;42.622;25.416;2024-03-23T02:00:36;96863.59;;;4.66;58.43
45078;BME280;60508;42.622;25.416;2024-03-23T02:03:21;96871.75;;;4.51;58.73
45078;BME280;60508;42.622;25.416;2024-03-23T02:05:48;96867.28;;;4.72;57.91
45078;BME280;60508;42.622;25.416;2024-03-23T02:08:34;96858.47;;;4.51;58.95
45078;BME280;60508;42.622;25.416;2024-03-23T02:11:01;96854.97;;;4.84;57.40
45078;BME280;60508;42.622;25.416;2024-03-23T02:13:27;96857.22;;;4.94;57.23
45078;BME280;60508;42.622;25.416;2024-03-23T02:16:14;96850.88;;;5.08;56.69
45078;BME280;60508;42.622;25.416;2024-03-23T02:18:40;96845.56;;;5.02;57.14
45078;BME280;60508;42.622;25.416;2024-03-23T02:21:06;96844.69;;;5.28;56.14
45078;BME280;60508;42.622;25.416;2024-03-23T02:23:33;96857.44;;;5.19;56.56
45078;BME280;60508;42.622;25.416;2024-03-23T02:26:19;96852.53;;;5.09;57.12
45078;BME280;60508;42.622;25.416;2024-03-23T02:28:45;96845.38;;;4.83;57.63
45078;BME280;60508;42.622;25.416;2024-03-23T02:31:12;96848.66;;;4.72;58.21
45078;BME280;60508;42.622;25.416;2024-03-23T02:33:39;96842.88;;;4.35;59.35
45078;BME280;60508;42.622;25.416;2024-03-23T02:36:25;96854.13;;;4.24;60.11
45078;BME280;60508;42.622;25.416;2024-03-23T02:38:52;96852.00;;;3.99;60.54
45078;BME280;60508;42.622;25.416;2024-03-23T02:41:19;96851.59;;;4.02;60.98
45078;BME280;60508;42.622;25.416;2024-03-23T02:43:49;96850.75;;;3.95;60.69
45078;BME280;60508;42.622;25.416;2024-03-23T02:46:16;96851.59;;;4.02;61.06
45078;BME280;60508;42.622;25.416;2024-03-23T02:49:02;96834.19;;;3.86;61.71
45078;BME280;60508;42.622;25.416;2024-03-23T02:51:30;96847.84;;;3.76;61.83
45078;BME280;60508;42.622;25.416;2024-03-23T02:53:56;96838.38;;;4.29;60.24
45078;BME280;60508;42.622;25.416;2024-03-23T02:56:43;96835.50;;;4.30;59.92
45078;BME280;60508;42.622;25.416;2024-03-23T02:59:09;96839.63;;;4.39;59.34
45078;BME280;60508;42.622;25.416;2024-03-23T03:01:36;96835.91;;;4.27;60.37
45078;BME280;60508;42.622;25.416;2024-03-23T03:04:02;96842.91;;;4.55;59.23
45078;BME280;60508;42.622;25.416;2024-03-23T03:06:49;96840.25;;;4.62;58.82
45078;BME280;60508;42.622;25.416;2024-03-23T03:09:15;96843.53;;;4.57;58.64
45078;BME280;60508;42.622;25.416;2024-03-23T03:11:42;96840.66;;;4.58;58.43
45078;BME280;60508;42.622;25.416;2024-03-23T03:14:08;96838.19;;;4.50;58.55
45078;BME280;60508;42.622;25.416;2024-03-23T03:16:55;96828.97;;;4.60;58.71
45078;BME280;60508;42.622;25.416;2024-03-23T03:19:21;96834.91;;;4.62;58.42
45078;BME280;60508;42.622;25.416;2024-03-23T03:21:47;96825.91;;;4.63;58.47
45078;BME280;60508;42.622;25.416;2024-03-23T03:24:14;96838.81;;;4.52;58.81
45078;BME280;60508;42.622;25.416;2024-03-23T03:26:40;96841.69;;;4.51;58.94
45078;BME280;60508;42.622;25.416;2024-03-23T03:29:07;96833.50;;;4.52;58.54
45078;BME280;60508;42.622;25.416;2024-03-23T03:31:33;96840.78;;;4.10;59.65
45078;BME280;60508;42.622;25.416;2024-03-23T03:34:20;96844.38;;;3.82;60.62
45078;BME280;60508;42.622;25.416;2024-03-23T03:36:46;96842.94;;;3.80;61.40
45078;BME280;60508;42.622;25.416;2024-03-23T03:39:12;96840.50;;;3.85;60.97
45078;BME280;60508;42.622;25.416;2024-03-23T03:41:39;96833.44;;;4.19;59.77
45078;BME280;60508;42.622;25.416;2024-03-23T03:44:25;96837.47;;;3.95;60.69
45078;BME280;60508;42.622;25.416;2024-03-23T03:46:52;96843.72;;;3.67;61.52
45078;BME280;60508;42.622;25.416;2024-03-23T03:49:18;96838.25;;;3.82;61.19
45078;BME280;60508;42.622;25.416;2024-03-23T03:52:05;96836.75;;;3.66;61.59
45078;BME280;60508;42.622;25.416;2024-03-23T03:54:31;96849.03;;;3.74;61.50
45078;BME280;60508;42.622;25.416;2024-03-23T03:56:57;96846.44;;;3.87;60.88
45078;BME280;60508;42.622;25.416;2024-03-23T03:59:24;96842.31;;;3.78;61.04
45078;BME280;60508;42.622;25.416;2024-03-23T04:01:50;96842.25;;;3.64;61.38
45078;BME280;60508;42.622;25.416;2024-03-23T04:04:37;96847.00;;;3.76;61.07
45078;BME280;60508;42.622;25.416;2024-03-23T04:07:03;96845.81;;;3.85;61.11
45078;BME280;60508;42.622;25.416;2024-03-23T04:09:51;96851.94;;;3.79;61.05
45078;BME280;60508;42.622;25.416;2024-03-23T04:12:17;96852.78;;;3.86;60.80
45078;BME280;60508;42.622;25.416;2024-03-23T04:14:44;96853.03;;;3.98;60.33
45078;BME280;60508;42.622;25.416;2024-03-23T04:17:10;96855.28;;;4.08;60.56
45078;BME280;60508;42.622;25.416;2024-03-23T04:19:57;96853.47;;;4.15;59.90
45078;BME280;60508;42.622;25.416;2024-03-23T04:22:24;96845.94;;;4.18;60.05
45078;BME280;60508;42.622;25.416;2024-03-23T04:24:56;96850.88;;;4.35;59.27
45078;BME280;60508;42.622;25.416;2024-03-23T04:27:23;96854.34;;;4.35;59.61
45078;BME280;60508;42.622;25.416;2024-03-23T04:29:52;96853.13;;;4.45;58.82
45078;BME280;60508;42.622;25.416;2024-03-23T04:32:19;96853.31;;;4.23;59.62
45078;BME280;60508;42.622;25.416;2024-03-23T04:34:45;96856.19;;;4.48;59.22
45078;BME280;60508;42.622;25.416;2024-03-23T04:37:12;96855.81;;;4.65;58.78
45078;BME280;60508;42.622;25.416;2024-03-23T04:39:39;96854.19;;;4.70;58.11
45078;BME280;60508;42.622;25.416;2024-03-23T04:42:25;96855.78;;;4.58;58.77
45078;BME280;60508;42.622;25.416;2024-03-23T04:44:55;96854.34;;;4.49;59.17
45078;BME280;60508;42.622;25.416;2024-03-23T04:47:21;96862.56;;;4.61;58.36
45078;BME280;60508;42.622;25.416;2024-03-23T04:49:48;96857.22;;;4.41;58.78
45078;BME280;60508;42.622;25.416;2024-03-23T04:52:35;96854.72;;;4.26;59.42
45078;BME280;60508;42.622;25.416;2024-03-23T04:55:02;96857.97;;;4.21;60.11
45078;BME280;60508;42.622;25.416;2024-03-23T04:57:30;96849.81;;;4.23;59.85
45078;BME280;60508;42.622;25.416;2024-03-23T04:59:56;96853.94;;;4.32;59.62
45078;BME280;60508;42.622;25.416;2024-03-23T05:02:23;96856.97;;;4.22;60.11
45078;BME280;60508;42.622;25.416;2024-03-23T05:05:11;96867.81;;;4.14;60.48
45078;BME280;60508;42.622;25.416;2024-03-23T05:07:38;96867.19;;;4.18;60.17
45078;BME280;60508;42.622;25.416;2024-03-23T05:10:05;96855.59;;;4.46;59.75
45078;BME280;60508;42.622;25.416;2024-03-23T05:12:32;96851.28;;;4.52;59.03
45078;BME280;60508;42.622;25.416;2024-03-23T05:14:58;96849.63;;;4.37;59.42
45078;BME280;60508;42.622;25.416;2024-03-23T05:17:44;96852.09;;;4.39;59.51
45078;BME280;60508;42.622;25.416;2024-03-23T05:20:11;96851.06;;;4.33;59.79
45078;BME280;60508;42.622;25.416;2024-03-23T05:22:39;96860.69;;;4.41;59.61
45078;BME280;60508;42.622;25.416;2024-03-23T05:25:15;96856.59;;;4.52;59.15
45078;BME280;60508;42.622;25.416;2024-03-23T05:28:02;96858.84;;;4.48;59.55
45078;BME280;60508;42.622;25.416;2024-03-23T05:30:28;96858.50;;;4.85;58.74
45078;BME280;60508;42.622;25.416;2024-03-23T05:32:55;96859.69;;;4.82;58.19
45078;BME280;60508;42.622;25.416;2024-03-23T05:35:41;96857.47;;;4.99;58.06
45078;BME280;60508;42.622;25.416;2024-03-23T05:38:07;96854.34;;;5.22;57.26
45078;BME280;60508;42.622;25.416;2024-03-23T05:40:34;96854.97;;;5.38;56.61
45078;BME280;60508;42.622;25.416;2024-03-23T05:43:03;96851.28;;;5.05;57.29
45078;BME280;60508;42.622;25.416;2024-03-23T05:45:30;96860.06;;;5.26;57.02
45078;BME280;60508;42.622;25.416;2024-03-23T05:47:56;96861.53;;;5.22;57.06
45078;BME280;60508;42.622;25.416;2024-03-23T05:50:25;96858.00;;;5.41;56.63
45078;BME280;60508;42.622;25.416;2024-03-23T05:52:52;96858.63;;;5.37;57.29
45078;BME280;60508;42.622;25.416;2024-03-23T05:55:18;96854.69;;;5.59;56.41
45078;BME280;60508;42.622;25.416;2024-03-23T05:57:45;96851.22;;;5.59;56.75
45078;BME280;60508;42.622;25.416;2024-03-23T06:00:12;96853.97;;;5.84;55.61
45078;BME280;60508;42.622;25.416;2024-03-23T06:02:44;96850.47;;;5.97;55.16
45078;BME280;60508;42.622;25.416;2024-03-23T06:05:11;96852.72;;;6.00;55.64
45078;BME280;60508;42.622;25.416;2024-03-23T06:07:38;96846.56;;;5.99;55.81
45078;BME280;60508;42.622;25.416;2024-03-23T06:10:05;96848.72;;;5.64;56.86
45078;BME280;60508;42.622;25.416;2024-03-23T06:12:32;96842.56;;;5.63;57.30
45078;BME280;60508;42.622;25.416;2024-03-23T06:15:19;96844.38;;;5.70;57.20
45078;BME280;60508;42.622;25.416;2024-03-23T06:17:45;96842.34;;;5.72;57.77
45078;BME280;60508;42.622;25.416;2024-03-23T06:20:12;96854.84;;;5.71;57.31
45078;BME280;60508;42.622;25.416;2024-03-23T06:22:39;96857.09;;;5.74;57.43
45078;BME280;60508;42.622;25.416;2024-03-23T06:25:06;96847.03;;;5.83;57.02
45078;BME280;60508;42.622;25.416;2024-03-23T06:27:33;96846.78;;;5.98;56.89
45078;BME280;60508;42.622;25.416;2024-03-23T06:30:00;96850.25;;;5.92;56.48
45078;BME280;60508;42.622;25.416;2024-03-23T06:32:46;96843.28;;;6.04;56.85
45078;BME280;60508;42.622;25.416;2024-03-23T06:35:13;96845.72;;;6.37;55.98
45078;BME280;60508;42.622;25.416;2024-03-23T06:37:40;96842.94;;;6.57;54.97
45078;BME280;60508;42.622;25.416;2024-03-23T06:40:27;96848.00;;;6.66;54.82
45078;BME280;60508;42.622;25.416;2024-03-23T06:42:57;96845.47;;;6.78;54.80
45078;BME280;60508;42.622;25.416;2024-03-23T06:45:23;96844.31;;;6.92;54.70
45078;BME280;60508;42.622;25.416;2024-03-23T06:47:50;96849.09;;;7.08;54.12
45078;BME280;60508;42.622;25.416;2024-03-23T06:50:37;96846.16;;;7.17;53.06
45078;BME280;60508;42.622;25.416;2024-03-23T06:53:04;96841.72;;;7.47;52.09
45078;BME280;60508;42.622;25.416;2024-03-23T06:55:31;96847.53;;;7.63;52.05
45078;BME280;60508;42.622;25.416;2024-03-23T06:58:22;96837.97;;;7.74;52.49
45078;BME280;60508;42.622;25.416;2024-03-23T07:00:48;96841.59;;;7.79;52.29
45078;BME280;60508;42.622;25.416;2024-03-23T07:03:16;96842.53;;;8.03;52.18
45078;BME280;60508;42.622;25.416;2024-03-23T07:05:42;96838.16;;;8.09;51.71
45078;BME280;60508;42.622;25.416;2024-03-23T07:08:28;96841.00;;;8.26;51.14
45078;BME280;60508;42.622;25.416;2024-03-23T07:10:55;96841.03;;;8.38;49.83
45078;BME280;60508;42.622;25.416;2024-03-23T07:13:21;96844.78;;;8.37;48.33
45078;BME280;60508;42.622;25.416;2024-03-23T07:15:54;96830.50;;;8.43;48.64
45078;BME280;60508;42.622;25.416;2024-03-23T07:18:21;96842.56;;;8.64;48.16
45078;BME280;60508;42.622;25.416;2024-03-23T07:20:58;96841.38;;;8.72;47.37
45078;BME280;60508;42.622;25.416;2024-03-23T07:23:44;96830.59;;;8.79;47.21
45078;BME280;60508;42.622;25.416;2024-03-23T07:26:11;96834.34;;;9.13;47.78
45078;BME280;60508;42.622;25.416;2024-03-23T07:28:38;96837.25;;;9.11;45.92
45078;BME280;60508;42.622;25.416;2024-03-23T07:31:13;96829.81;;;9.25;45.00
45078;BME280;60508;42.622;25.416;2024-03-23T07:33:46;96815.31;;;9.50;43.47
45078;BME280;60508;42.622;25.416;2024-03-23T07:36:33;96818.53;;;9.76;42.70
45078;BME280;60508;42.622;25.416;2024-03-23T07:38:59;96822.22;;;9.98;43.16
45078;BME280;60508;42.622;25.416;2024-03-23T07:41:26;96820.03;;;9.83;42.56
45078;BME280;60508;42.622;25.416;2024-03-23T07:43:53;96821.75;;;10.01;41.85
45078;BME280;60508;42.622;25.416;2024-03-23T07:46:20;96815.38;;;10.08;41.89
45078;BME280;60508;42.622;25.416;2024-03-23T07:48:47;96814.41;;;10.26;41.98
45078;BME280;60508;42.622;25.416;2024-03-23T07:51:20;96817.53;;;10.34;41.85
45078;BME280;60508;42.622;25.416;2024-03-23T07:54:07;96813.59;;;10.54;41.66
45078;BME280;60508;42.622;25.416;2024-03-23T07:56:33;96809.00;;;10.37;41.44
45078;BME280;60508;42.622;25.416;2024-03-23T07:59:00;96808.09;;;10.77;41.03
45078;BME280;60508;42.622;25.416;2024-03-23T08:01:46;96800.25;;;10.93;39.67
45078;BME280;60508;42.622;25.416;2024-03-23T08:04:12;96800.97;;;10.88;39.96
45078;BME280;60508;42.622;25.416;2024-03-23T08:06:39;96800.00;;;10.94;39.59
45078;BME280;60508;42.622;25.416;2024-03-23T08:09:25;96801.53;;;11.07;39.27
45078;BME280;60508;42.622;25.416;2024-03-23T08:11:52;96801.34;;;11.31;39.67
45078;BME280;60508;42.622;25.416;2024-03-23T08:14:38;96799.75;;;11.52;38.68
45078;BME280;60508;42.622;25.416;2024-03-23T08:17:04;96800.50;;;11.47;39.30
45078;BME280;60508;42.622;25.416;2024-03-23T08:19:31;96801.56;;;11.46;38.89
45078;BME280;60508;42.622;25.416;2024-03-23T08:21:57;96792.91;;;11.61;38.36
45078;BME280;60508;42.622;25.416;2024-03-23T08:24:43;96800.31;;;12.20;38.93
45078;BME280;60508;42.622;25.416;2024-03-23T08:27:10;96798.09;;;12.12;37.88
45078;BME280;60508;42.622;25.416;2024-03-23T08:29:36;96796.41;;;12.06;36.57
45078;BME280;60508;42.622;25.416;2024-03-23T08:32:02;96796.56;;;12.21;35.33
45078;BME280;60508;42.622;25.416;2024-03-23T08:34:29;96797.63;;;12.20;35.86
45078;BME280;60508;42.622;25.416;2024-03-23T08:36:55;96795.25;;;12.51;36.51
45078;BME280;60508;42.622;25.416;2024-03-23T08:39:22;96788.84;;;12.57;35.70
45078;BME280;60508;42.622;25.416;2024-03-23T08:42:08;96787.31;;;12.67;35.24
45078;BME280;60508;42.622;25.416;2024-03-23T08:44:35;96788.47;;;13.13;34.88
45078;BME280;60508;42.622;25.416;2024-03-23T08:47:21;96787.97;;;13.17;32.19
45078;BME280;60508;42.622;25.416;2024-03-23T08:49:48;96785.94;;;13.34;30.08
45078;BME280;60508;42.622;25.416;2024-03-23T08:52:14;96789.56;;;13.18;31.61
45078;BME280;60508;42.622;25.416;2024-03-23T08:55:00;96787.34;;;13.09;32.68
45078;BME280;60508;42.622;25.416;2024-03-23T08:57:27;96776.69;;;13.73;33.07
45078;BME280;60508;42.622;25.416;2024-03-23T08:59:54;96781.75;;;14.42;30.87
45078;BME280;60508;42.622;25.416;2024-03-23T09:02:20;96772.06;;;14.93;30.19
45078;BME280;60508;42.622;25.416;2024-03-23T09:05:06;96779.72;;;16.42;28.29
45078;BME280;60508;42.622;25.416;2024-03-23T09:07:33;96777.84;;;17.94;27.58
45078;BME280;60508;42.622;25.416;2024-03-23T09:09:59;96776.91;;;18.61;29.21
45078;BME280;60508;42.622;25.416;2024-03-23T09:12:26;96768.75;;;19.13;25.77
45078;BME280;60508;42.622;25.416;2024-03-23T09:14:52;96772.25;;;20.52;26.04
45078;BME280;60508;42.622;25.416;2024-03-23T09:17:19;96770.94;;;22.12;22.61
45078;BME280;60508;42.622;25.416;2024-03-23T09:19:45;96764.41;;;22.56;21.57
45078;BME280;60508;42.622;25.416;2024-03-23T09:22:12;96765.34;;;23.30;19.88
45078;BME280;60508;42.622;25.416;2024-03-23T09:24:39;96760.47;;;24.13;20.18
45078;BME280;60508;42.622;25.416;2024-03-23T09:27:25;96762.13;;;25.32;19.41
45078;BME280;60508;42.622;25.416;2024-03-23T09:29:51;96744.25;;;24.71;19.78
45078;BME280;60508;42.622;25.416;2024-03-23T09:32:38;96745.69;;;24.48;19.09
45078;BME280;60508;42.622;25.416;2024-03-23T09:35:05;96751.94;;;25.32;18.64
45078;BME280;60508;42.622;25.416;2024-03-23T09:37:31;96752.56;;;25.75;17.61
45078;BME280;60508;42.622;25.416;2024-03-23T09:40:17;96735.94;;;25.13;17.26
45078;BME280;60508;42.622;25.416;2024-03-23T09:42:49;96732.72;;;26.31;16.73
45078;BME280;60508;42.622;25.416;2024-03-23T09:45:39;96731.69;;;27.65;16.18
45078;BME280;60508;42.622;25.416;2024-03-23T09:48:09;96726.59;;;26.91;16.25
45078;BME280;60508;42.622;25.416;2024-03-23T09:50:56;96721.78;;;26.88;15.78
45078;BME280;60508;42.622;25.416;2024-03-23T09:53:23;96715.94;;;26.77;15.93
45078;BME280;60508;42.622;25.416;2024-03-23T09:55:49;96724.28;;;27.53;16.38
45078;BME280;60508;42.622;25.416;2024-03-23T09:58:16;96711.81;;;28.07;15.36
45078;BME280;60508;42.622;25.416;2024-03-23T10:00:44;96712.22;;;25.79;16.50
45078;BME280;60508;42.622;25.416;2024-03-23T10:03:10;96702.03;;;26.86;16.03
45078;BME280;60508;42.622;25.416;2024-03-23T10:05:37;96699.34;;;27.81;15.91
45078;BME280;60508;42.622;25.416;2024-03-23T10:08:17;96688.53;;;28.83;15.14
45078;BME280;60508;42.622;25.416;2024-03-23T10:11:15;96698.72;;;28.59;14.71
45078;BME280;60508;42.622;25.416;2024-03-23T10:13:43;96693.88;;;28.17;13.84
45078;BME280;60508;42.622;25.416;2024-03-23T10:16:10;96685.78;;;28.08;15.23
45078;BME280;60508;42.622;25.416;2024-03-23T10:18:37;96682.19;;;28.43;15.15
45078;BME280;60508;42.622;25.416;2024-03-23T10:21:10;96690.34;;;29.18;14.00
45078;BME280;60508;42.622;25.416;2024-03-23T10:24:08;96679.13;;;28.48;14.24
45078;BME280;60508;42.622;25.416;2024-03-23T10:26:35;96668.56;;;29.59;13.26
45078;BME280;60508;42.622;25.416;2024-03-23T10:29:02;96666.50;;;31.00;12.40
45078;BME280;60508;42.622;25.416;2024-03-23T10:31:37;96668.38;;;29.98;12.84
45078;BME280;60508;42.622;25.416;2024-03-23T10:34:28;96653.50;;;32.01;13.19
45078;BME280;60508;42.622;25.416;2024-03-23T10:36:56;96653.34;;;30.29;12.66
45078;BME280;60508;42.622;25.416;2024-03-23T10:39:43;96645.50;;;29.51;13.66
45078;BME280;60508;42.622;25.416;2024-03-23T10:42:09;96647.75;;;30.52;12.06
45078;BME280;60508;42.622;25.416;2024-03-23T10:44:59;96640.56;;;31.23;12.33
45078;BME280;60508;42.622;25.416;2024-03-23T10:47:26;96633.72;;;31.09;11.93
45078;BME280;60508;42.622;25.416;2024-03-23T10:49:52;96622.72;;;31.69;12.66
45078;BME280;60508;42.622;25.416;2024-03-23T10:52:19;96626.34;;;32.46;12.18
45078;BME280;60508;42.622;25.416;2024-03-23T10:55:07;96620.97;;;30.67;13.07
45078;BME280;60508;42.622;25.416;2024-03-23T10:57:49;96616.81;;;31.77;13.04
45078;BME280;60508;42.622;25.416;2024-03-23T11:00:38;96614.97;;;32.94;12.04
45078;BME280;60508;42.622;25.416;2024-03-23T11:03:37;96613.63;;;32.52;12.20
45078;BME280;60508;42.622;25.416;2024-03-23T11:06:04;96611.78;;;32.96;12.70
45078;BME280;60508;42.622;25.416;2024-03-23T11:08:31;96606.44;;;32.40;11.77
45078;BME280;60508;42.622;25.416;2024-03-23T11:11:21;96606.63;;;33.12;12.06
45078;BME280;60508;42.622;25.416;2024-03-23T11:13:50;96606.63;;;33.81;11.06
45078;BME280;60508;42.622;25.416;2024-03-23T11:18:51;96600.44;;;34.51;10.65
45078;BME280;60508;42.622;25.416;2024-03-23T11:21:54;96588.06;;;34.55;10.77
45078;BME280;60508;42.622;25.416;2024-03-23T11:24:21;96593.34;;;34.39;10.91
45078;BME280;60508;42.622;25.416;2024-03-23T11:27:17;96582.75;;;32.97;10.83
45078;BME280;60508;42.622;25.416;2024-03-23T11:29:44;96566.22;;;29.93;12.15
45078;BME280;60508;42.622;25.416;2024-03-23T11:32:10;96563.03;;;31.44;12.38
45078;BME280;60508;42.622;25.416;2024-03-23T11:34:39;96561.28;;;33.55;10.92
45078;BME280;60508;42.622;25.416;2024-03-23T11:37:05;96547.00;;;31.79;10.99
45078;BME280;60508;42.622;25.416;2024-03-23T11:39:32;96549.38;;;33.40;11.21
45078;BME280;60508;42.622;25.416;2024-03-23T11:42:19;96549.97;;;34.27;10.66
45078;BME280;60508;42.622;25.416;2024-03-23T11:44:47;96545.38;;;34.66;10.20
45078;BME280;60508;42.622;25.416;2024-03-23T11:47:33;96530.22;;;33.75;10.89
45078;BME280;60508;42.622;25.416;2024-03-23T11:50:00;96532.53;;;33.94;10.88
45078;BME280;60508;42.622;25.416;2024-03-23T11:52:26;96532.13;;;34.81;10.13
45078;BME280;60508;42.622;25.416;2024-03-23T11:55:03;96527.22;;;34.96;10.35
45078;BME280;60508;42.622;25.416;2024-03-23T11:57:29;96528.06;;;34.92;11.05
45078;BME280;60508;42.622;25.416;2024-03-23T11:59:56;96526.97;;;34.72;10.49
45078;BME280;60508;42.622;25.416;2024-03-23T12:02:22;96519.13;;;32.96;12.08
45078;BME280;60508;42.622;25.416;2024-03-23T12:04:49;96517.16;;;33.03;10.90
45078;BME280;60508;42.622;25.416;2024-03-23T12:07:19;96498.59;;;34.17;11.01
45078;BME280;60508;42.622;25.416;2024-03-23T12:10:05;96509.13;;;30.52;12.50
45078;BME280;60508;42.622;25.416;2024-03-23T12:13:01;96507.69;;;31.10;13.22
45078;BME280;60508;42.622;25.416;2024-03-23T12:15:28;96498.78;;;30.94;13.55
45078;BME280;60508;42.622;25.416;2024-03-23T12:18:10;96493.72;;;32.79;12.43
45078;BME280;60508;42.622;25.416;2024-03-23T12:20:38;96478.72;;;34.08;11.67
45078;BME280;60508;42.622;25.416;2024-03-23T12:23:09;96485.13;;;34.05;11.33
45078;BME280;60508;42.622;25.416;2024-03-23T12:25:38;96477.94;;;34.11;11.02
45078;BME280;60508;42.622;25.416;2024-03-23T12:28:25;96477.44;;;34.90;10.92
45078;BME280;60508;42.622;25.416;2024-03-23T12:30:56;96477.63;;;34.62;10.85
45078;BME280;60508;42.622;25.416;2024-03-23T12:33:23;96473.75;;;34.48;11.01
45078;BME280;60508;42.622;25.416;2024-03-23T12:35:52;96472.59;;;34.42;11.31
45078;BME280;60508;42.622;25.416;2024-03-23T12:38:19;96485.34;;;32.68;11.56
45078;BME280;60508;42.622;25.416;2024-03-23T12:41:06;96472.47;;;33.82;11.40
45078;BME280;60508;42.622;25.416;2024-03-23T12:43:32;96466.69;;;32.83;11.87
45078;BME280;60508;42.622;25.416;2024-03-23T12:45:59;96466.25;;;32.56;12.28
45078;BME280;60508;42.622;25.416;2024-03-23T12:48:45;96446.50;;;34.03;11.23
45078;BME280;60508;42.622;25.416;2024-03-23T12:51:12;96453.66;;;34.01;11.27
45078;BME280;60508;42.622;25.416;2024-03-23T12:53:58;96451.53;;;32.34;12.03
45078;BME280;60508;42.622;25.416;2024-03-23T12:56:25;96448.38;;;33.29;11.56
45078;BME280;60508;42.622;25.416;2024-03-23T12:59:12;96431.28;;;34.19;11.06
45078;BME280;60508;42.622;25.416;2024-03-23T13:01:39;96444.28;;;33.70;10.93
45078;BME280;60508;42.622;25.416;2024-03-23T13:04:05;96434.13;;;31.45;12.41
45078;BME280;60508;42.622;25.416;2024-03-23T13:06:52;96416.44;;;31.75;12.52
45078;BME280;60508;42.622;25.416;2024-03-23T13:09:18;96431.31;;;32.66;12.00
45078;BME280;60508;42.622;25.416;2024-03-23T13:12:05;96431.38;;;34.01;11.25
45078;BME280;60508;42.622;25.416;2024-03-23T13:14:32;96415.25;;;33.56;11.39
45078;BME280;60508;42.622;25.416;2024-03-23T13:16:58;96426.50;;;32.99;11.86
45078;BME280;60508;42.622;25.416;2024-03-23T13:19:25;96422.38;;;31.77;12.47
45078;BME280;60508;42.622;25.416;2024-03-23T13:22:13;96418.94;;;32.34;11.31
45078;BME280;60508;42.622;25.416;2024-03-23T13:24:39;96416.06;;;31.84;12.17
45078;BME280;60508;42.622;25.416;2024-03-23T13:27:25;96412.22;;;32.53;12.03
45078;BME280;60508;42.622;25.416;2024-03-23T13:29:52;96408.16;;;32.00;12.40
45078;BME280;60508;42.622;25.416;2024-03-23T13:32:18;96406.66;;;30.22;12.63
45078;BME280;60508;42.622;25.416;2024-03-23T13:35:05;96401.50;;;32.30;11.91
45078;BME280;60508;42.622;25.416;2024-03-23T13:37:32;96402.13;;;31.70;11.96
45078;BME280;60508;42.622;25.416;2024-03-23T13:40:20;96407.44;;;32.36;12.05
45078;BME280;60508;42.622;25.416;2024-03-23T13:42:46;96405.44;;;33.01;11.63
45078;BME280;60508;42.622;25.416;2024-03-23T13:45:32;96395.13;;;32.30;12.23
45078;BME280;60508;42.622;25.416;2024-03-23T13:47:59;96393.03;;;31.94;12.60
45078;BME280;60508;42.622;25.416;2024-03-23T13:50:45;96387.56;;;32.55;11.92
45078;BME280;60508;42.622;25.416;2024-03-23T13:53:14;96380.50;;;31.27;12.36
45078;BME280;60508;42.622;25.416;2024-03-23T13:55:47;96386.22;;;30.89;12.73
45078;BME280;60508;42.622;25.416;2024-03-23T13:58:36;96379.59;;;30.49;13.55
45078;BME280;60508;42.622;25.416;2024-03-23T14:01:02;96377.72;;;30.16;13.12
45078;BME280;60508;42.622;25.416;2024-03-23T14:03:29;96365.69;;;30.01;13.38
45078;BME280;60508;42.622;25.416;2024-03-23T14:05:58;96366.84;;;29.62;13.55
45078;BME280;60508;42.622;25.416;2024-03-23T14:08:24;96374.47;;;29.73;13.61
45078;BME280;60508;42.622;25.416;2024-03-23T14:10:50;96378.38;;;30.43;13.51
45078;BME280;60508;42.622;25.416;2024-03-23T14:13:18;96363.44;;;30.14;13.44
45078;BME280;60508;42.622;25.416;2024-03-23T14:15:44;96357.16;;;28.58;14.36
45078;BME280;60508;42.622;25.416;2024-03-23T14:18:10;96352.75;;;27.64;14.89